DFINE EETN-EFHK
Flight info
| Callsign | DFINE |
|---|---|
| Flight time | 0h 44m |
| Altitude | 26000 |
| Route | DCT |
| Aircraft | TBM8/L-SDFGRWY/S |
Departure
| Time | 2026-05-05 17:44 |
|---|---|
| Airport | Lennart Meri Tallinn Airport (EETN) |
Arrival
| Time | 2026-05-05 18:28 |
|---|---|
| Airport | Helsinki Vantaa Airport (EFHK) |
| Time | Latitude | Longitude | Altitude | Speed | Heading |
|---|---|---|---|---|---|
| 2026-05-05 17:15 | 59.41572 | 24.81331 | 134 ft | 0 kts | 268° |
| 2026-05-05 17:27 | 59.41571 | 24.81312 | 134 ft | 0 kts | 267° |
| 2026-05-05 17:27 | 59.41546 | 24.81230 | 134 ft | 7 kts | 197° |
| 2026-05-05 17:27 | 59.41515 | 24.81314 | 134 ft | 13 kts | 114° |
| 2026-05-05 17:28 | 59.41504 | 24.81489 | 134 ft | 13 kts | 90° |
| 2026-05-05 17:28 | 59.41504 | 24.81723 | 134 ft | 22 kts | 90° |
| 2026-05-05 17:28 | 59.41503 | 24.81968 | 135 ft | 14 kts | 90° |
| 2026-05-05 17:28 | 59.41503 | 24.82141 | 135 ft | 15 kts | 91° |
| 2026-05-05 17:29 | 59.41502 | 24.82418 | 135 ft | 25 kts | 91° |
| 2026-05-05 17:29 | 59.41500 | 24.82824 | 136 ft | 29 kts | 90° |
| 2026-05-05 17:29 | 59.41501 | 24.83141 | 136 ft | 20 kts | 90° |
| 2026-05-05 17:29 | 59.41499 | 24.83446 | 136 ft | 24 kts | 90° |
| 2026-05-05 17:30 | 59.41498 | 24.83735 | 137 ft | 18 kts | 89° |
| 2026-05-05 17:30 | 59.41497 | 24.83953 | 137 ft | 14 kts | 91° |
| 2026-05-05 17:30 | 59.41498 | 24.84159 | 137 ft | 16 kts | 90° |
| 2026-05-05 17:30 | 59.41498 | 24.84369 | 137 ft | 14 kts | 90° |
| 2026-05-05 17:31 | 59.41497 | 24.84552 | 137 ft | 13 kts | 90° |
| 2026-05-05 17:31 | 59.41497 | 24.84698 | 137 ft | 8 kts | 90° |
| 2026-05-05 17:31 | 59.41497 | 24.84792 | 138 ft | 6 kts | 90° |
| 2026-05-05 17:31 | 59.41496 | 24.84890 | 138 ft | 8 kts | 95° |
| 2026-05-05 17:32 | 59.41481 | 24.84975 | 138 ft | 6 kts | 129° |
| 2026-05-05 17:32 | 59.41433 | 24.85004 | 138 ft | 8 kts | 185° |
| 2026-05-05 17:32 | 59.41414 | 24.85004 | 138 ft | 0 kts | 178° |
| 2026-05-05 17:41 | 59.41409 | 24.85004 | 138 ft | 3 kts | 176° |
| 2026-05-05 17:41 | 59.41349 | 24.85026 | 138 ft | 14 kts | 167° |
| 2026-05-05 17:41 | 59.41322 | 24.84974 | 138 ft | 0 kts | 269° |
| 2026-05-05 17:42 | 59.41322 | 24.84963 | 138 ft | 8 kts | 269° |
| 2026-05-05 17:43 | 59.41322 | 24.84448 | 135 ft | 68 kts | 270° |
| 2026-05-05 17:43 | 59.41297 | 24.83286 | 273 ft | 100 kts | 270° |
| 2026-05-05 17:43 | 59.41291 | 24.81696 | 438 ft | 128 kts | 270° |
| 2026-05-05 17:43 | 59.41468 | 24.79874 | 668 ft | 147 kts | 297° |
| 2026-05-05 17:44 | 59.42280 | 24.78495 | 816 ft | 169 kts | 332° |
| 2026-05-05 17:44 | 59.43483 | 24.78262 | 944 ft | 185 kts | 5° |
| 2026-05-05 17:44 | 59.44754 | 24.78805 | 1041 ft | 184 kts | 4° |
| 2026-05-05 17:44 | 59.45992 | 24.79107 | 1021 ft | 178 kts | 357° |
| 2026-05-05 17:45 | 59.47198 | 24.79234 | 1111 ft | 172 kts | 355° |
| 2026-05-05 17:45 | 59.48395 | 24.79171 | 977 ft | 176 kts | 351° |
| 2026-05-05 17:45 | 59.49614 | 24.78836 | 825 ft | 177 kts | 340° |
| 2026-05-05 17:45 | 59.50398 | 24.77320 | 795 ft | 163 kts | 274° |
| 2026-05-05 17:46 | 59.50060 | 24.75278 | 927 ft | 155 kts | 245° |
| 2026-05-05 17:46 | 59.49615 | 24.73394 | 1039 ft | 149 kts | 250° |
| 2026-05-05 17:46 | 59.49312 | 24.71512 | 1178 ft | 140 kts | 259° |
| 2026-05-05 17:46 | 59.49151 | 24.69651 | 1219 ft | 139 kts | 265° |
| 2026-05-05 17:47 | 59.49238 | 24.67807 | 1306 ft | 137 kts | 289° |
| 2026-05-05 17:47 | 59.49698 | 24.66077 | 1141 ft | 148 kts | 296° |
| 2026-05-05 17:47 | 59.50181 | 24.64249 | 1028 ft | 149 kts | 292° |
| 2026-05-05 17:47 | 59.50553 | 24.62402 | 1055 ft | 144 kts | 288° |
| 2026-05-05 17:48 | 59.50916 | 24.60554 | 1059 ft | 143 kts | 289° |
| 2026-05-05 17:48 | 59.51259 | 24.58758 | 1062 ft | 140 kts | 288° |
| 2026-05-05 17:48 | 59.51603 | 24.56956 | 1060 ft | 138 kts | 289° |
| 2026-05-05 17:48 | 59.51719 | 24.55132 | 1068 ft | 138 kts | 255° |
| 2026-05-05 17:49 | 59.51050 | 24.53819 | 1066 ft | 148 kts | 204° |
| 2026-05-05 17:49 | 59.49986 | 24.53772 | 1078 ft | 155 kts | 181° |
| 2026-05-05 17:49 | 59.48920 | 24.53931 | 1079 ft | 155 kts | 182° |
| 2026-05-05 17:49 | 59.47842 | 24.54079 | 1079 ft | 155 kts | 183° |
| 2026-05-05 17:50 | 59.46771 | 24.54161 | 1078 ft | 155 kts | 184° |
| 2026-05-05 17:50 | 59.45685 | 24.54242 | 1072 ft | 155 kts | 183° |
| 2026-05-05 17:50 | 59.44619 | 24.54313 | 1115 ft | 154 kts | 183° |
| 2026-05-05 17:50 | 59.43545 | 24.54381 | 1164 ft | 154 kts | 183° |
| 2026-05-05 17:51 | 59.42482 | 24.54438 | 1220 ft | 153 kts | 184° |
| 2026-05-05 17:51 | 59.41408 | 24.54511 | 1276 ft | 154 kts | 184° |
| 2026-05-05 17:51 | 59.40346 | 24.54542 | 1324 ft | 154 kts | 185° |
| 2026-05-05 17:51 | 59.39266 | 24.54548 | 1383 ft | 154 kts | 185° |
| 2026-05-05 17:52 | 59.38197 | 24.54559 | 1433 ft | 155 kts | 185° |
| 2026-05-05 17:52 | 59.37111 | 24.54571 | 1486 ft | 155 kts | 185° |
| 2026-05-05 17:52 | 59.36017 | 24.54567 | 1500 ft | 157 kts | 185° |
| 2026-05-05 17:52 | 59.34926 | 24.54555 | 1500 ft | 159 kts | 186° |
| 2026-05-05 17:53 | 59.33810 | 24.54554 | 1499 ft | 159 kts | 185° |
| 2026-05-05 17:53 | 59.32709 | 24.54555 | 1501 ft | 159 kts | 185° |
| 2026-05-05 17:53 | 59.31592 | 24.54645 | 1501 ft | 164 kts | 172° |
| 2026-05-05 17:53 | 59.30664 | 24.55947 | 1498 ft | 173 kts | 123° |
| 2026-05-05 17:54 | 59.30229 | 24.58148 | 1507 ft | 173 kts | 107° |
| 2026-05-05 17:54 | 59.29994 | 24.60433 | 1513 ft | 174 kts | 99° |
| 2026-05-05 17:54 | 59.29803 | 24.62821 | 1504 ft | 178 kts | 94° |
| 2026-05-05 17:54 | 59.29760 | 24.65232 | 1508 ft | 180 kts | 89° |
| 2026-05-05 17:55 | 59.29747 | 24.67691 | 1509 ft | 180 kts | 90° |
| 2026-05-05 17:55 | 59.29739 | 24.70161 | 1511 ft | 180 kts | 89° |
| 2026-05-05 17:55 | 59.29720 | 24.72577 | 1511 ft | 179 kts | 89° |
| 2026-05-05 17:55 | 59.29697 | 24.75030 | 1504 ft | 180 kts | 90° |
| 2026-05-05 17:56 | 59.29692 | 24.77459 | 1505 ft | 180 kts | 89° |
| 2026-05-05 17:56 | 59.29683 | 24.79913 | 1510 ft | 180 kts | 89° |
| 2026-05-05 17:56 | 59.29666 | 24.82341 | 1501 ft | 179 kts | 89° |
| 2026-05-05 17:56 | 59.29643 | 24.84787 | 1500 ft | 178 kts | 89° |
| 2026-05-05 17:57 | 59.29725 | 24.87168 | 1499 ft | 176 kts | 72° |
| 2026-05-05 17:57 | 59.30130 | 24.89412 | 1500 ft | 173 kts | 67° |
| 2026-05-05 17:57 | 59.30530 | 24.91618 | 1496 ft | 173 kts | 68° |
| 2026-05-05 17:57 | 59.30929 | 24.93855 | 1496 ft | 172 kts | 68° |
| 2026-05-05 17:58 | 59.31319 | 24.96036 | 1498 ft | 171 kts | 67° |
| 2026-05-05 17:58 | 59.31707 | 24.98226 | 1494 ft | 171 kts | 68° |
| 2026-05-05 17:58 | 59.32103 | 25.00433 | 1497 ft | 171 kts | 66° |
| 2026-05-05 17:58 | 59.32484 | 25.02657 | 1496 ft | 171 kts | 68° |
| 2026-05-05 17:59 | 59.32857 | 25.04835 | 1497 ft | 171 kts | 68° |
| 2026-05-05 17:59 | 59.33254 | 25.07051 | 1501 ft | 172 kts | 68° |
| 2026-05-05 17:59 | 59.33649 | 25.09247 | 1501 ft | 171 kts | 67° |
| 2026-05-05 17:59 | 59.34033 | 25.11461 | 1500 ft | 171 kts | 68° |
| 2026-05-05 18:00 | 59.34536 | 25.13534 | 1478 ft | 170 kts | 54° |
| 2026-05-05 18:00 | 59.35395 | 25.14997 | 1416 ft | 161 kts | 12° |
| 2026-05-05 18:00 | 59.36467 | 25.15265 | 1372 ft | 155 kts | 358° |
| 2026-05-05 18:00 | 59.37553 | 25.15443 | 1320 ft | 154 kts | 359° |
| 2026-05-05 18:01 | 59.38605 | 25.15620 | 1267 ft | 152 kts | 358° |
| 2026-05-05 18:01 | 59.39653 | 25.15809 | 1209 ft | 150 kts | 359° |
| 2026-05-05 18:01 | 59.40680 | 25.15989 | 1152 ft | 148 kts | 359° |
| 2026-05-05 18:01 | 59.41715 | 25.16138 | 1100 ft | 151 kts | 358° |
| 2026-05-05 18:02 | 59.42787 | 25.16286 | 1042 ft | 157 kts | 358° |
| 2026-05-05 18:02 | 59.43878 | 25.16433 | 1008 ft | 157 kts | 358° |
| 2026-05-05 18:02 | 59.44967 | 25.16605 | 1009 ft | 156 kts | 359° |
| 2026-05-05 18:02 | 59.46041 | 25.16794 | 1007 ft | 155 kts | 358° |
| 2026-05-05 18:03 | 59.47139 | 25.16975 | 1014 ft | 161 kts | 359° |
| 2026-05-05 18:03 | 59.48257 | 25.17142 | 1010 ft | 164 kts | 358° |
| 2026-05-05 18:03 | 59.49424 | 25.17285 | 1030 ft | 168 kts | 358° |
| 2026-05-05 18:03 | 59.50563 | 25.17466 | 1255 ft | 159 kts | 359° |
| 2026-05-05 18:04 | 59.51645 | 25.17655 | 1524 ft | 154 kts | 358° |
| 2026-05-05 18:04 | 59.52730 | 25.17862 | 1788 ft | 162 kts | 359° |
| 2026-05-05 18:04 | 59.53883 | 25.18077 | 2057 ft | 169 kts | 358° |
| 2026-05-05 18:04 | 59.55057 | 25.18292 | 2323 ft | 172 kts | 358° |
| 2026-05-05 18:05 | 59.56267 | 25.18526 | 2592 ft | 174 kts | 359° |
| 2026-05-05 18:05 | 59.57475 | 25.18751 | 2859 ft | 176 kts | 359° |
| 2026-05-05 18:05 | 59.58716 | 25.18965 | 3123 ft | 178 kts | 359° |
| 2026-05-05 18:05 | 59.59931 | 25.19169 | 3380 ft | 178 kts | 358° |
| 2026-05-05 18:06 | 59.61176 | 25.19377 | 3648 ft | 179 kts | 359° |
| 2026-05-05 18:06 | 59.61586 | 25.19444 | 3736 ft | 179 kts | 359° |
| 2026-05-05 18:06 | 59.63666 | 25.19790 | 4175 ft | 181 kts | 358° |
| 2026-05-05 18:06 | 59.64933 | 25.20011 | 4444 ft | 182 kts | 359° |
| 2026-05-05 18:07 | 59.66190 | 25.20229 | 4703 ft | 183 kts | 358° |
| 2026-05-05 18:07 | 59.67447 | 25.20448 | 4964 ft | 183 kts | 359° |
| 2026-05-05 18:07 | 59.68720 | 25.20674 | 5223 ft | 183 kts | 358° |
| 2026-05-05 18:07 | 59.69981 | 25.20900 | 5487 ft | 183 kts | 359° |
| 2026-05-05 18:08 | 59.71260 | 25.21132 | 5751 ft | 184 kts | 359° |
| 2026-05-05 18:08 | 59.72570 | 25.21366 | 5825 ft | 194 kts | 359° |
| 2026-05-05 18:08 | 59.73943 | 25.21600 | 5833 ft | 204 kts | 359° |
| 2026-05-05 18:08 | 59.75389 | 25.21838 | 5830 ft | 210 kts | 359° |
| 2026-05-05 18:09 | 59.76858 | 25.22072 | 5830 ft | 215 kts | 359° |
| 2026-05-05 18:09 | 59.77852 | 25.22229 | 5836 ft | 216 kts | 359° |
| 2026-05-05 18:09 | 59.79843 | 25.22795 | 5833 ft | 218 kts | 6° |
| 2026-05-05 18:09 | 59.80835 | 25.23196 | 5832 ft | 217 kts | 6° |
| 2026-05-05 18:10 | 59.82802 | 25.23991 | 5828 ft | 216 kts | 6° |
| 2026-05-05 18:10 | 59.83798 | 25.24362 | 5828 ft | 214 kts | 4° |
| 2026-05-05 18:10 | 59.85251 | 25.24857 | 5828 ft | 212 kts | 3° |
| 2026-05-05 18:10 | 59.86693 | 25.25248 | 5827 ft | 210 kts | 1° |
| 2026-05-05 18:11 | 59.88133 | 25.25781 | 5820 ft | 213 kts | 14° |
| 2026-05-05 18:11 | 59.89486 | 25.27078 | 5817 ft | 216 kts | 23° |
| 2026-05-05 18:11 | 59.90818 | 25.28493 | 5818 ft | 216 kts | 22° |
| 2026-05-05 18:11 | 59.92131 | 25.29884 | 5817 ft | 215 kts | 22° |
| 2026-05-05 18:12 | 59.93461 | 25.31294 | 5816 ft | 215 kts | 23° |
| 2026-05-05 18:12 | 59.94773 | 25.32694 | 5815 ft | 215 kts | 23° |
| 2026-05-05 18:12 | 59.96100 | 25.34117 | 5814 ft | 215 kts | 23° |
| 2026-05-05 18:12 | 59.97408 | 25.35513 | 5816 ft | 215 kts | 22° |
| 2026-05-05 18:13 | 59.98728 | 25.36858 | 5813 ft | 214 kts | 21° |
| 2026-05-05 18:13 | 60.00068 | 25.38165 | 5815 ft | 214 kts | 21° |
| 2026-05-05 18:13 | 60.01412 | 25.39481 | 5814 ft | 214 kts | 21° |
| 2026-05-05 18:13 | 60.02744 | 25.40781 | 5813 ft | 214 kts | 21° |
| 2026-05-05 18:14 | 60.04070 | 25.42071 | 5812 ft | 214 kts | 21° |
| 2026-05-05 18:14 | 60.05412 | 25.43365 | 5771 ft | 215 kts | 19° |
| 2026-05-05 18:14 | 60.06856 | 25.43809 | 5629 ft | 209 kts | 347° |
| 2026-05-05 18:14 | 60.08246 | 25.42993 | 5499 ft | 206 kts | 327° |
| 2026-05-05 18:15 | 60.09345 | 25.41214 | 5371 ft | 203 kts | 313° |
| 2026-05-05 18:15 | 60.10344 | 25.39240 | 5246 ft | 203 kts | 312° |
| 2026-05-05 18:15 | 60.11339 | 25.37265 | 5109 ft | 200 kts | 312° |
| 2026-05-05 18:15 | 60.12320 | 25.35306 | 4978 ft | 196 kts | 312° |
| 2026-05-05 18:16 | 60.13280 | 25.33370 | 4844 ft | 194 kts | 312° |
| 2026-05-05 18:16 | 60.14224 | 25.31454 | 4716 ft | 193 kts | 312° |
| 2026-05-05 18:16 | 60.15150 | 25.29561 | 4579 ft | 191 kts | 312° |
| 2026-05-05 18:16 | 60.16092 | 25.27653 | 4443 ft | 191 kts | 315° |
| 2026-05-05 18:17 | 60.17186 | 25.26162 | 4299 ft | 192 kts | 329° |
| 2026-05-05 18:17 | 60.18446 | 25.25223 | 4163 ft | 195 kts | 341° |
| 2026-05-05 18:17 | 60.19794 | 25.24744 | 4030 ft | 196 kts | 348° |
| 2026-05-05 18:17 | 60.21154 | 25.24387 | 3899 ft | 196 kts | 348° |
| 2026-05-05 18:18 | 60.22508 | 25.24189 | 3767 ft | 197 kts | 354° |
| 2026-05-05 18:18 | 60.23888 | 25.24261 | 3629 ft | 199 kts | 359° |
| 2026-05-05 18:18 | 60.25258 | 25.24482 | 3508 ft | 198 kts | 358° |
| 2026-05-05 18:18 | 60.26628 | 25.24602 | 3500 ft | 193 kts | 357° |
| 2026-05-05 18:19 | 60.27960 | 25.24710 | 3496 ft | 190 kts | 357° |
| 2026-05-05 18:19 | 60.29268 | 25.24820 | 3496 ft | 188 kts | 357° |
| 2026-05-05 18:19 | 60.30576 | 25.24941 | 3488 ft | 187 kts | 357° |
| 2026-05-05 18:19 | 60.31862 | 25.25056 | 3481 ft | 186 kts | 357° |
| 2026-05-05 18:20 | 60.33159 | 25.25142 | 3487 ft | 185 kts | 355° |
| 2026-05-05 18:20 | 60.34453 | 25.25161 | 3481 ft | 185 kts | 355° |
| 2026-05-05 18:20 | 60.35739 | 25.25183 | 3474 ft | 185 kts | 355° |
| 2026-05-05 18:20 | 60.37011 | 25.25229 | 3220 ft | 179 kts | 356° |
| 2026-05-05 18:21 | 60.38217 | 25.25295 | 2949 ft | 168 kts | 355° |
| 2026-05-05 18:21 | 60.39344 | 25.25372 | 2675 ft | 158 kts | 355° |
| 2026-05-05 18:21 | 60.40430 | 25.25459 | 2405 ft | 153 kts | 355° |
| 2026-05-05 18:21 | 60.41452 | 25.25282 | 2132 ft | 145 kts | 341° |
| 2026-05-05 18:22 | 60.42288 | 25.24371 | 1864 ft | 135 kts | 311° |
| 2026-05-05 18:22 | 60.42953 | 25.23036 | 1595 ft | 133 kts | 311° |
| 2026-05-05 18:22 | 60.43476 | 25.21523 | 1331 ft | 131 kts | 296° |
| 2026-05-05 18:22 | 60.43778 | 25.19811 | 1054 ft | 134 kts | 270° |
| 2026-05-05 18:23 | 60.43345 | 25.18127 | 894 ft | 133 kts | 230° |
| 2026-05-05 18:23 | 60.42707 | 25.16868 | 892 ft | 133 kts | 218° |
| 2026-05-05 18:23 | 60.41873 | 25.15942 | 896 ft | 138 kts | 212° |
| 2026-05-05 18:23 | 60.41038 | 25.14993 | 943 ft | 135 kts | 215° |
| 2026-05-05 18:24 | 60.40257 | 25.13991 | 1000 ft | 135 kts | 224° |
| 2026-05-05 18:24 | 60.39595 | 25.12621 | 1011 ft | 136 kts | 231° |
| 2026-05-05 18:24 | 60.38930 | 25.11226 | 1012 ft | 137 kts | 230° |
| 2026-05-05 18:24 | 60.38271 | 25.09839 | 1021 ft | 137 kts | 230° |
| 2026-05-05 18:25 | 60.37649 | 25.08405 | 1016 ft | 137 kts | 234° |
| 2026-05-05 18:25 | 60.37260 | 25.07485 | 1021 ft | 118 kts | 234° |
| 2026-05-05 18:25 | 60.36583 | 25.05887 | 1009 ft | 117 kts | 232° |
| 2026-05-05 18:25 | 60.36038 | 25.04648 | 874 ft | 120 kts | 232° |
| 2026-05-05 18:26 | 60.35481 | 25.03399 | 834 ft | 118 kts | 231° |
| 2026-05-05 18:26 | 60.34978 | 25.02240 | 670 ft | 101 kts | 232° |
| 2026-05-05 18:26 | 60.34550 | 25.01187 | 512 ft | 91 kts | 230° |
| 2026-05-05 18:26 | 60.34162 | 25.00342 | 443 ft | 81 kts | 232° |
| 2026-05-05 18:27 | 60.33779 | 24.99486 | 379 ft | 84 kts | 228° |
| 2026-05-05 18:27 | 60.33373 | 24.98615 | 302 ft | 86 kts | 228° |
| 2026-05-05 18:27 | 60.32971 | 24.97725 | 199 ft | 85 kts | 233° |
| 2026-05-05 18:27 | 60.32623 | 24.96933 | 168 ft | 62 kts | 229° |
| 2026-05-05 18:28 | 60.32402 | 24.96567 | 169 ft | 3 kts | 166° |
| 2026-05-05 18:28 | 60.32382 | 24.96579 | 169 ft | 1 kts | 157° |
| 2026-05-05 18:28 | 60.32366 | 24.96595 | 168 ft | 3 kts | 152° |
| 2026-05-05 18:29 | 60.32364 | 24.96597 | 167 ft | 0 kts | 152° |
| 2026-05-05 18:29 | 60.32327 | 24.96638 | 164 ft | 13 kts | 149° |
| 2026-05-05 18:30 | 60.32266 | 24.96712 | 161 ft | 11 kts | 151° |
| 2026-05-05 18:30 | 60.32194 | 24.96797 | 160 ft | 8 kts | 146° |
| 2026-05-05 18:30 | 60.32141 | 24.96860 | 161 ft | 14 kts | 152° |
| 2026-05-05 18:30 | 60.32081 | 24.96927 | 161 ft | 10 kts | 152° |
| 2026-05-05 18:31 | 60.31958 | 24.97059 | 161 ft | 26 kts | 150° |
| 2026-05-05 18:31 | 60.31846 | 24.97177 | 161 ft | 11 kts | 153° |
| 2026-05-05 18:31 | 60.31793 | 24.97235 | 161 ft | 13 kts | 161° |
| 2026-05-05 18:31 | 60.31713 | 24.97310 | 160 ft | 13 kts | 154° |
| 2026-05-05 18:32 | 60.31624 | 24.97401 | 160 ft | 14 kts | 154° |
| 2026-05-05 18:32 | 60.31524 | 24.97507 | 155 ft | 15 kts | 149° |
| 2026-05-05 18:32 | 60.31448 | 24.97590 | 154 ft | 10 kts | 153° |
| 2026-05-05 18:32 | 60.31380 | 24.97658 | 153 ft | 15 kts | 154° |
| 2026-05-05 18:33 | 60.31343 | 24.97680 | 154 ft | 0 kts | 171° |
| 2026-05-05 18:33 | 60.31324 | 24.97680 | 155 ft | 7 kts | 186° |
| 2026-05-05 18:33 | 60.31274 | 24.97661 | 156 ft | 10 kts | 192° |
| 2026-05-05 18:33 | 60.31187 | 24.97719 | 157 ft | 17 kts | 155° |
| 2026-05-05 18:34 | 60.31153 | 24.97748 | 157 ft | 1 kts | 156° |
| 2026-05-05 18:34 | 60.31119 | 24.97746 | 157 ft | 9 kts | 181° |
| 2026-05-05 18:34 | 60.31055 | 24.97797 | 154 ft | 8 kts | 153° |
| 2026-05-05 18:34 | 60.30976 | 24.97878 | 156 ft | 19 kts | 155° |
| 2026-05-05 18:35 | 60.30906 | 24.97958 | 156 ft | 4 kts | 131° |
| 2026-05-05 18:35 | 60.30873 | 24.97986 | 156 ft | 5 kts | 205° |
| 2026-05-05 18:35 | 60.30853 | 24.97965 | 157 ft | 3 kts | 206° |
| 2026-05-05 18:35 | 60.30840 | 24.97958 | 157 ft | 2 kts | 178° |
| 2026-05-05 18:36 | 60.30830 | 24.97998 | 157 ft | 6 kts | 84° |
| 2026-05-05 18:36 | 60.30839 | 24.98079 | 156 ft | 6 kts | 62° |
| 2026-05-05 18:36 | 60.30866 | 24.98085 | 155 ft | 3 kts | 306° |
| 2026-05-05 18:36 | 60.30867 | 24.98068 | 155 ft | 2 kts | 250° |
| 2026-05-05 18:37 | 60.30866 | 24.98065 | 155 ft | 0 kts | 241° |